Time;durP1;ratioP1;P1;durP2;ratioP2;P2;SDS_P1;SDS_P2;PMS_P1;PMS_P2;Temp;Humidity;BMP_temperature;BMP_pressure;BME280_temperature;BME280_humidity;BME280_pressure;Samples;Min_cycle;Max_cycle;Signal;HPM_P1;HPM_P2
2023/07/24 00:02:05;;;;;;;0.32;0.30;;;;;;;25.99;54.08;99605.66;4461689;31;32250;-84
2023/07/24 00:04:33;;;;;;;1.45;1.12;;;;;;;26.07;53.84;99605.66;4494006;31;33556;-83
2023/07/24 00:07:01;;;;;;;1.75;1.00;;;;;;;26.03;53.91;99601.59;4478908;31;32759;-83
2023/07/24 00:09:29;;;;;;;0.52;0.52;;;;;;;26.17;53.57;99600.91;4464993;31;32797;-83
2023/07/24 00:11:57;;;;;;;0.45;0.20;;;;;;;26.43;52.95;99607.97;4479804;31;32503;-83
2023/07/24 00:14:24;;;;;;;1.00;0.95;;;;;;;26.37;53.01;99603.22;4478440;31;32576;-84
2023/07/24 00:16:52;;;;;;;0.90;0.90;;;;;;;26.33;53.17;99599.16;4479224;31;33797;-84
2023/07/24 00:19:20;;;;;;;0.40;0.40;;;;;;;26.10;53.78;99605.28;4474057;32;32651;-83
2023/07/24 00:21:47;;;;;;;0.77;0.65;;;;;;;26.01;54.20;99598.19;4490800;31;33194;-83
2023/07/24 00:24:15;;;;;;;1.17;1.08;;;;;;;25.96;54.38;99597.87;4488581;31;33574;-83
2023/07/24 00:26:42;;;;;;;0.60;0.57;;;;;;;26.20;53.87;99594.28;4488867;31;33306;-83
2023/07/24 00:29:10;;;;;;;0.40;0.40;;;;;;;26.24;53.63;99593.75;4493756;31;34184;-83
2023/07/24 00:31:37;;;;;;;1.10;0.75;;;;;;;25.94;54.55;99594.50;4492819;31;32566;-82
2023/07/24 00:34:05;;;;;;;3.95;1.35;;;;;;;26.17;54.03;99590.06;4491998;31;33564;-82
2023/07/24 00:36:32;;;;;;;2.40;1.17;;;;;;;26.02;54.47;99587.22;4491085;31;33487;-83
2023/07/24 00:39:00;;;;;;;0.73;0.73;;;;;;;26.14;54.20;99582.28;4476997;31;33560;-83
2023/07/24 00:41:30;;;;;;;1.80;0.55;;;;;;;26.07;54.33;99584.00;4476424;31;32090;-82
2023/07/24 00:43:58;;;;;;;1.08;0.85;;;;;;;26.37;53.60;99584.28;4496003;31;34069;-83
2023/07/24 00:46:31;;;;;;;0.57;0.57;;;;;;;26.33;53.87;99586.47;4480168;31;34032;-82
2023/07/24 00:49:01;;;;;;;0.73;0.73;;;;;;;26.19;54.13;99577.19;4491282;31;34071;-82
2023/07/24 00:51:30;;;;;;;1.25;0.35;;;;;;;26.03;54.44;99569.13;4492374;31;33328;-83
2023/07/24 00:54:01;;;;;;;1.45;1.05;;;;;;;26.05;54.58;99567.94;4491100;31;33529;-83
2023/07/24 00:56:30;;;;;;;0.40;0.40;;;;;;;25.68;55.43;99573.84;4482482;31;32506;-83
2023/07/24 00:59:03;;;;;;;0.60;0.60;;;;;;;25.88;55.04;99563.56;4467239;31;31960;-83
2023/07/24 01:01:32;;;;;;;0.32;0.20;;;;;;;25.86;55.19;99570.16;4477234;31;32009;-82
2023/07/24 01:04:00;;;;;;;0.82;0.77;;;;;;;25.95;55.06;99563.72;4495283;31;33578;-84
2023/07/24 01:06:29;;;;;;;0.62;0.62;;;;;;;25.77;55.51;99564.75;4482726;31;33837;-84
2023/07/24 01:09:01;;;;;;;2.67;1.45;;;;;;;25.81;55.46;99565.25;4490181;31;34289;-84
2023/07/24 01:11:32;;;;;;;1.40;0.60;;;;;;;25.86;55.51;99570.16;4493454;31;34081;-84
2023/07/24 01:14:21;;;;;;;3.10;1.52;;;;;;;25.68;55.79;99568.44;4492499;31;34451;-84
2023/07/24 01:16:50;;;;;;;1.05;0.88;;;;;;;25.64;55.89;99569.81;4491747;31;34640;-84
2023/07/24 01:19:35;;;;;;;1.58;1.00;;;;;;;25.61;56.06;99570.16;4481251;31;32455;-84
2023/07/24 01:22:22;;;;;;;0.82;0.82;;;;;;;25.64;56.04;99572.53;4467047;31;32542;-84
2023/07/24 01:25:06;;;;;;;1.87;0.95;;;;;;;25.69;56.05;99562.03;4490678;31;33346;-84
2023/07/24 01:27:34;;;;;;;0.68;0.68;;;;;;;25.24;57.64;99570.62;4467997;31;33893;-84
2023/07/24 01:30:02;;;;;;;1.70;0.82;;;;;;;25.24;57.79;99565.22;4477578;32;33862;-84
2023/07/24 01:32:30;;;;;;;1.00;0.77;;;;;;;25.24;57.79;99566.06;4492291;31;33496;-84
2023/07/24 01:34:57;;;;;;;0.93;0.88;;;;;;;25.17;58.09;99575.03;4488819;31;35009;-84
2023/07/24 01:37:26;;;;;;;3.30;1.27;;;;;;;25.21;57.94;99566.41;4463813;31;32345;-83
2023/07/24 01:39:55;;;;;;;2.15;1.92;;;;;;;25.09;58.24;99556.94;4491360;31;34838;-83
2023/07/24 01:42:24;;;;;;;0.40;0.40;;;;;;;25.04;58.31;99561.94;4487603;31;32915;-83
2023/07/24 01:44:53;;;;;;;0.90;0.90;;;;;;;25.12;58.04;99559.31;4462260;31;34799;-83
2023/07/24 01:47:21;;;;;;;0.20;0.20;;;;;;;25.28;57.47;99567.44;4464058;31;32703;-83
2023/07/24 01:49:49;;;;;;;1.02;0.70;;;;;;;25.20;57.42;99558.44;4478476;31;33585;-83
2023/07/24 01:52:17;;;;;;;0.88;0.73;;;;;;;25.09;57.79;99564.19;4476552;31;35132;-83
2023/07/24 01:54:46;;;;;;;1.30;1.00;;;;;;;24.97;58.21;99558.19;4493651;31;33760;-83
2023/07/24 01:57:13;;;;;;;0.80;0.55;;;;;;;24.90;58.30;99549.09;4493901;31;34067;-83
2023/07/24 01:59:41;;;;;;;7.32;0.80;;;;;;;25.00;57.92;99553.31;4493046;31;34088;-83
2023/07/24 02:02:09;;;;;;;0.60;0.60;;;;;;;24.86;58.49;99553.13;4481275;31;31918;-83
2023/07/24 02:04:37;;;;;;;0.13;0.13;;;;;;;24.85;58.75;99548.75;4472519;31;33047;-83
2023/07/24 02:07:05;;;;;;;0.35;0.28;;;;;;;24.78;59.04;99552.09;4478707;31;33760;-84
2023/07/24 02:09:36;;;;;;;0.28;0.28;;;;;;;24.68;59.54;99548.69;4475983;31;33467;-83
2023/07/24 02:12:05;;;;;;;2.62;0.95;;;;;;;24.66;59.79;99550.72;4476580;31;33204;-84
2023/07/24 02:14:32;;;;;;;3.22;1.20;;;;;;;24.70;59.60;99560.16;4487884;31;33783;-83
2023/07/24 02:17:00;;;;;;;1.20;0.82;;;;;;;24.62;59.88;99548.50;4487482;31;33221;-83
2023/07/24 02:19:28;;;;;;;1.70;0.70;;;;;;;24.61;59.84;99553.06;4465795;31;32557;-84
2023/07/24 02:21:56;;;;;;;0.05;0.05;;;;;;;24.71;59.48;99559.16;4464974;32;32588;-83
2023/07/24 02:24:31;;;;;;;1.00;0.70;;;;;;;24.69;59.58;99558.50;4475644;31;33888;-83
2023/07/24 02:26:59;;;;;;;1.42;1.20;;;;;;;24.62;59.96;99557.44;4477119;31;34435;-83
2023/07/24 02:29:31;;;;;;;0.32;0.32;;;;;;;24.69;59.78;99552.25;4489043;31;34024;-83
2023/07/24 02:31:59;;;;;;;0.80;0.80;;;;;;;24.85;59.10;99552.28;4493175;31;33515;-83
2023/07/24 02:34:28;;;;;;;1.45;1.35;;;;;;;24.83;59.33;99556.16;4489874;31;33894;-83
2023/07/24 02:36:56;;;;;;;0.88;0.82;;;;;;;24.66;59.92;99550.72;4492919;31;34767;-83
2023/07/24 02:39:23;;;;;;;1.02;0.85;;;;;;;24.67;59.93;99552.37;4491746;31;33886;-83
2023/07/24 02:41:50;;;;;;;0.75;0.75;;;;;;;24.64;60.06;99554.56;4479165;31;34139;-83
2023/07/24 02:44:18;;;;;;;0.70;0.47;;;;;;;24.48;60.60;99558.06;4481440;31;32441;-83
2023/07/24 02:46:46;;;;;;;0.15;0.15;;;;;;;24.55;60.41;99559.09;4477457;31;32609;-83
2023/07/24 02:49:15;;;;;;;3.83;1.52;;;;;;;24.55;60.13;99556.41;4476965;31;32369;-83
2023/07/24 02:51:43;;;;;;;0.20;0.20;;;;;;;24.56;59.90;99558.09;4479310;31;31847;-83
2023/07/24 02:54:11;;;;;;;2.08;1.02;;;;;;;24.54;59.88;99557.41;4479203;31;33924;-83
2023/07/24 02:56:39;;;;;;;0.30;0.30;;;;;;;24.42;60.47;99561.41;4478079;31;32524;-83
2023/07/24 02:59:07;;;;;;;2.95;1.02;;;;;;;24.51;60.07;99558.56;4491297;31;33826;-83
2023/07/24 03:01:36;;;;;;;0.55;0.55;;;;;;;24.35;60.76;99561.16;4493254;31;33112;-83
2023/07/24 03:04:05;;;;;;;1.80;0.70;;;;;;;24.38;60.61;99558.19;4491477;31;34534;-83
2023/07/24 03:06:33;;;;;;;0.90;0.60;;;;;;;24.42;60.52;99553.31;4478831;31;34450;-83
2023/07/24 03:09:00;;;;;;;0.75;0.62;;;;;;;24.52;59.97;99556.72;4479147;31;33564;-83
2023/07/24 03:11:28;;;;;;;0.52;0.52;;;;;;;24.40;60.25;99549.91;4478765;31;31953;-84
2023/07/24 03:13:56;;;;;;;0.50;0.50;;;;;;;24.45;60.01;99551.13;4481130;31;32264;-85
2023/07/24 03:16:24;;;;;;;0.22;0.22;;;;;;;24.33;60.35;99546.16;4478836;31;32727;-84
2023/07/24 03:18:51;;;;;;;3.70;1.52;;;;;;;24.23;60.61;99539.03;4464629;31;33297;-84
2023/07/24 03:21:20;;;;;;;0.28;0.22;;;;;;;24.21;60.72;99546.44;4480591;31;32116;-84
2023/07/24 03:23:48;;;;;;;0.50;0.50;;;;;;;24.20;60.76;99544.72;4479478;31;32922;-85
2023/07/24 03:26:16;;;;;;;1.48;1.12;;;;;;;24.12;60.80;99539.31;4467456;31;34212;-85
2023/07/24 03:28:44;;;;;;;1.30;0.40;;;;;;;24.10;60.80;99548.56;4488584;31;32146;-85
2023/07/24 03:31:15;;;;;;;0.50;0.50;;;;;;;24.14;60.63;99547.22;4492380;31;32993;-84
2023/07/24 03:33:43;;;;;;;1.10;0.98;;;;;;;24.17;60.39;99539.66;4492958;31;33610;-84
2023/07/24 03:36:11;;;;;;;1.37;1.02;;;;;;;24.50;59.54;99537.16;4479643;31;33982;-84
2023/07/24 03:38:38;;;;;;;0.68;0.68;;;;;;;24.07;60.87;99536.25;4464546;31;32626;-83
2023/07/24 03:41:06;;;;;;;1.30;0.60;;;;;;;23.98;61.17;99540.75;4474421;31;33135;-84
2023/07/24 03:43:33;;;;;;;0.88;0.47;;;;;;;23.93;61.32;99537.69;4479761;32;32142;-84
2023/07/24 03:46:01;;;;;;;0.62;0.62;;;;;;;24.02;60.95;99541.25;4497059;31;34828;-84
2023/07/24 03:48:29;;;;;;;1.52;1.20;;;;;;;24.31;60.37;99534.66;4492839;31;33827;-84
2023/07/24 03:51:02;;;;;;;1.33;0.73;;;;;;;24.04;61.19;99533.00;4495687;31;33444;-84
2023/07/24 03:53:30;;;;;;;1.23;1.12;;;;;;;23.73;62.40;99531.62;4473453;31;33126;-84
2023/07/24 03:55:59;;;;;;;1.37;0.55;;;;;;;23.77;62.36;99538.41;4492332;31;34719;-84
2023/07/24 03:58:27;;;;;;;0.32;0.32;;;;;;;23.82;62.32;99534.38;4478060;32;33638;-84
2023/07/24 04:00:54;;;;;;;0.70;0.70;;;;;;;23.90;61.96;99534.44;4485012;31;34130;-84
2023/07/24 04:03:22;;;;;;;3.03;0.98;;;;;;;23.86;62.37;99535.75;4477649;31;34597;-83
2023/07/24 04:05:50;;;;;;;0.55;0.55;;;;;;;23.85;62.47;99539.47;4476441;31;33993;-83
2023/07/24 04:08:17;;;;;;;2.60;1.02;;;;;;;24.07;61.78;99532.69;4489381;31;33690;-83
2023/07/24 04:10:45;;;;;;;0.75;0.70;;;;;;;24.11;61.76;99534.91;4475618;31;33647;-83
2023/07/24 04:13:12;;;;;;;1.15;0.65;;;;;;;24.24;61.52;99537.16;4480011;31;32319;-84
2023/07/24 04:15:40;;;;;;;0.30;0.30;;;;;;;24.67;60.00;99540.75;4462844;32;34068;-83
2023/07/24 04:18:08;;;;;;;2.90;0.70;;;;;;;24.86;59.39;99534.22;4476869;31;32503;-84
2023/07/24 04:20:36;;;;;;;1.15;1.12;;;;;;;24.44;60.91;99532.38;4477454;31;33157;-84
2023/07/24 04:23:03;;;;;;;0.70;0.70;;;;;;;24.34;61.38;99528.94;4481667;31;32646;-84
2023/07/24 04:25:31;;;;;;;1.17;0.73;;;;;;;24.34;61.58;99528.94;4490502;31;34932;-84
2023/07/24 04:27:59;;;;;;;2.72;1.17;;;;;;;24.78;60.07;99518.84;4480999;31;32801;-83
2023/07/24 04:30:26;;;;;;;0.80;0.70;;;;;;;24.96;59.51;99524.94;4489811;31;32870;-83
2023/07/24 04:32:54;;;;;;;0.52;0.52;;;;;;;24.70;60.32;99522.38;4490981;31;33759;-83
2023/07/24 04:35:22;;;;;;;0.65;0.65;;;;;;;24.37;61.28;99512.47;4488320;31;33896;-83
2023/07/24 04:37:51;;;;;;;1.35;1.12;;;;;;;24.37;61.40;99523.25;4489907;31;33848;-82
2023/07/24 04:40:19;;;;;;;5.12;2.20;;;;;;;24.86;59.47;99524.25;4491169;31;33435;-84
2023/07/24 04:42:46;;;;;;;0.98;0.93;;;;;;;25.06;58.80;99526.66;4479770;31;32697;-83
2023/07/24 04:45:14;;;;;;;2.62;1.55;;;;;;;24.96;58.95;99526.81;4490775;31;33434;-83
2023/07/24 04:47:42;;;;;;;0.75;0.75;;;;;;;24.80;59.75;99518.69;4490103;31;33480;-83
2023/07/24 04:50:09;;;;;;;1.15;0.82;;;;;;;24.57;60.77;99521.16;4493998;31;33518;-86
2023/07/24 04:52:37;;;;;;;1.17;0.82;;;;;;;24.71;60.47;99515.97;4480207;31;33600;-86
2023/07/24 04:55:05;;;;;;;7.53;0.75;;;;;;;25.00;59.87;99528.19;4477811;31;32662;-85
2023/07/24 04:57:33;;;;;;;1.27;1.23;;;;;;;25.19;59.44;99521.66;4479026;31;33681;-85
2023/07/24 05:00:00;;;;;;;0.45;0.45;;;;;;;25.37;58.94;99530.44;4474948;31;32459;-85
2023/07/24 05:02:29;;;;;;;1.40;1.27;;;;;;;25.43;58.89;99526.22;4479451;31;32811;-86
2023/07/24 05:04:56;;;;;;;0.85;0.85;;;;;;;25.28;59.91;99535.00;4477972;31;32601;-85
2023/07/24 05:07:24;;;;;;;1.02;0.98;;;;;;;25.07;nan;99540.06;4492422;31;33889;-85
2023/07/24 05:09:52;;;;;;;0.80;0.80;;;;;;;25.44;59.98;99531.44;4464044;31;33843;-85
2023/07/24 05:12:19;;;;;;;2.22;1.33;;;;;;;25.55;58.91;99530.28;4477627;31;33717;-85
2023/07/24 05:14:47;;;;;;;0.82;0.77;;;;;;;25.42;59.31;99540.75;4488406;31;33926;-86
2023/07/24 05:17:15;;;;;;;2.35;0.95;;;;;;;25.72;59.28;99531.09;4479380;31;30748;-86
2023/07/24 05:19:43;;;;;;;1.35;1.20;;;;;;;25.55;59.88;99530.28;4490263;31;34045;-85
2023/07/24 05:22:10;;;;;;;0.90;0.85;;;;;;;25.54;59.65;99528.56;4491154;31;32453;-84
2023/07/24 05:24:38;;;;;;;1.25;1.15;;;;;;;26.04;58.11;99520.25;4489870;31;34833;-86
2023/07/24 05:27:05;;;;;;;0.45;0.45;;;;;;;25.69;59.10;99526.06;4473862;31;94401;-86
2023/07/24 05:29:33;;;;;;;3.30;1.00;;;;;;;26.07;58.87;99523.66;4489891;31;33174;-85
2023/07/24 05:32:01;;;;;;;1.62;1.08;;;;;;;25.93;58.82;99530.59;4479684;31;32499;-86
2023/07/24 05:34:28;;;;;;;2.00;1.52;;;;;;;26.15;58.42;99526.31;4462709;31;33125;-85
2023/07/24 05:36:57;;;;;;;1.15;1.10;;;;;;;26.50;56.97;99530.47;4491959;31;33823;-85
2023/07/24 05:39:24;;;;;;;0.45;0.45;;;;;;;26.62;56.86;99526.31;4471363;31;32178;-85
2023/07/24 05:41:52;;;;;;;0.60;0.60;;;;;;;26.29;58.55;99531.00;4477919;31;32385;-85
2023/07/24 05:44:21;;;;;;;1.10;1.00;;;;;;;26.46;58.39;99515.56;4491314;31;33185;-85
2023/07/24 05:46:50;;;;;;;0.93;0.88;;;;;;;26.68;58.06;99522.06;4477302;31;32738;-85
2023/07/24 05:49:19;;;;;;;1.02;0.93;;;;;;;26.81;57.19;99523.16;4476721;31;32973;-86
2023/07/24 05:51:46;;;;;;;1.90;1.40;;;;;;;26.55;58.02;99522.66;4478714;31;34347;-86
2023/07/24 05:54:14;;;;;;;0.73;0.73;;;;;;;26.32;58.38;99529.81;4478692;31;34347;-85
2023/07/24 05:56:41;;;;;;;1.98;1.80;;;;;;;26.75;57.50;99523.03;4490949;31;34664;-85
2023/07/24 05:59:09;;;;;;;0.30;0.30;;;;;;;27.18;56.43;99523.47;4478432;31;34193;-85
2023/07/24 06:01:37;;;;;;;0.98;0.93;;;;;;;27.35;56.79;99516.03;4491793;31;33584;-85
2023/07/24 06:04:07;;;;;;;2.25;1.33;;;;;;;27.12;56.59;99508.78;4478108;31;33062;-86
2023/07/24 06:06:36;;;;;;;1.35;1.27;;;;;;;27.24;56.70;99504.59;4490793;31;33837;-85
2023/07/24 06:09:03;;;;;;;0.60;0.60;;;;;;;27.11;57.62;99500.81;4489067;31;34192;-85
2023/07/24 06:11:31;;;;;;;1.17;0.77;;;;;;;27.25;57.24;99503.63;4480043;31;33003;-85
2023/07/24 06:13:59;;;;;;;1.08;0.93;;;;;;;26.99;58.23;99505.78;4488242;31;34015;-85
2023/07/24 06:16:26;;;;;;;2.97;1.83;;;;;;;27.44;57.63;99501.41;4490135;31;32558;-86
2023/07/24 06:18:55;;;;;;;3.25;0.98;;;;;;;27.37;58.02;99500.47;4479728;31;32161;-85
2023/07/24 06:21:22;;;;;;;1.33;1.23;;;;;;;27.51;57.74;99491.53;4476834;31;33752;-86
2023/07/24 06:23:50;;;;;;;2.30;1.50;;;;;;;27.56;57.38;99505.37;4488857;31;33616;-86
2023/07/24 06:26:17;;;;;;;1.67;1.58;;;;;;;27.60;57.14;99503.97;4490941;31;32645;-86
2023/07/24 06:28:45;;;;;;;3.83;1.58;;;;;;;27.77;56.58;99492.00;4491998;31;32861;-86
2023/07/24 06:31:13;;;;;;;0.93;0.90;;;;;;;28.22;56.28;99498.25;4474369;31;33273;-86
2023/07/24 06:33:41;;;;;;;1.35;0.70;;;;;;;28.04;55.92;99492.34;4478480;31;32393;-86
2023/07/24 06:36:12;;;;;;;0.62;0.62;;;;;;;28.20;55.43;99503.03;4477522;31;34059;-85
2023/07/24 06:38:41;;;;;;;1.67;1.20;;;;;;;28.22;55.43;99500.13;4488606;31;34735;-86
2023/07/24 06:41:09;;;;;;;1.27;1.17;;;;;;;28.15;55.87;99497.31;4490569;31;33849;-86
2023/07/24 06:43:37;;;;;;;1.62;1.02;;;;;;;28.48;55.01;99489.63;4477783;31;33656;-86
2023/07/24 06:46:04;;;;;;;0.70;0.70;;;;;;;28.68;54.57;99500.75;4490823;31;32723;-86
2023/07/24 06:48:32;;;;;;;0.70;0.70;;;;;;;28.37;55.47;99514.56;4491163;31;33058;-86
2023/07/24 06:51:00;;;;;;;1.50;1.40;;;;;;;28.65;54.51;99498.41;4476223;31;33509;-86
2023/07/24 06:53:27;;;;;;;3.35;1.75;;;;;;;28.41;55.36;99493.31;4477088;31;32971;-86
2023/07/24 06:55:55;;;;;;;3.03;1.40;;;;;;;28.57;54.67;99501.22;4477878;31;33246;-86
2023/07/24 06:58:23;;;;;;;0.40;0.40;;;;;;;28.82;54.02;99502.59;4472022;31;32705;-85
2023/07/24 07:00:50;;;;;;;2.75;0.73;;;;;;;29.37;53.77;99491.22;4490097;31;33836;-86
2023/07/24 07:03:18;;;;;;;1.87;1.12;;;;;;;29.54;53.61;99487.19;4478004;31;33558;-86
2023/07/24 07:05:46;;;;;;;4.62;1.73;;;;;;;29.24;53.00;99498.22;4476943;31;32262;-87
2023/07/24 07:08:13;;;;;;;1.08;0.90;;;;;;;29.17;53.78;99494.59;4476396;31;33039;-86
2023/07/24 07:10:41;;;;;;;1.15;1.02;;;;;;;29.53;52.23;99489.09;4461484;31;32260;-86
2023/07/24 07:13:08;;;;;;;2.15;1.33;;;;;;;29.74;51.69;99479.22;4475472;31;32442;-86
2023/07/24 07:15:36;;;;;;;7.90;1.10;;;;;;;29.74;51.65;99473.78;4475710;31;33998;-86
2023/07/24 07:18:04;;;;;;;5.50;1.08;;;;;;;29.92;51.03;99481.44;4478562;31;33812;-86
2023/07/24 07:20:32;;;;;;;1.33;1.08;;;;;;;29.95;51.52;99472.84;4478136;31;35008;-86
2023/07/24 07:22:59;;;;;;;0.70;0.65;;;;;;;30.06;51.17;99466.84;4477953;31;33798;-86
2023/07/24 07:25:27;;;;;;;4.62;1.75;;;;;;;30.04;51.03;99460.75;4475436;31;33323;-86
2023/07/24 07:27:54;;;;;;;1.85;1.70;;;;;;;30.13;50.55;99456.84;4475094;31;33204;-87
2023/07/24 07:30:22;;;;;;;2.78;1.85;;;;;;;30.16;50.63;99456.47;4489152;31;33684;-87
2023/07/24 07:32:50;;;;;;;1.15;1.05;;;;;;;30.28;49.50;99452.09;4476213;31;33905;-86
2023/07/24 07:35:18;;;;;;;3.80;1.15;;;;;;;30.55;49.84;99449.50;4465937;31;32405;-86
2023/07/24 07:37:45;;;;;;;2.10;0.73;;;;;;;30.59;49.45;99442.59;4474925;31;32242;-87
2023/07/24 07:40:13;;;;;;;2.65;0.75;;;;;;;30.53;48.96;99446.16;4475778;31;32145;-87
2023/07/24 07:42:41;;;;;;;0.35;0.35;;;;;;;30.79;48.32;99439.94;4490005;31;33209;-86
2023/07/24 07:45:11;;;;;;;1.67;1.45;;;;;;;30.47;48.44;99442.31;4481992;31;31901;-86
2023/07/24 07:47:39;;;;;;;2.35;2.15;;;;;;;30.96;48.10;99441.25;4478347;31;34083;-86
2023/07/24 07:50:06;;;;;;;2.95;2.22;;;;;;;31.04;47.68;99443.75;4487829;31;32626;-86
2023/07/24 07:52:34;;;;;;;2.45;1.67;;;;;;;30.91;49.00;99443.75;4478469;31;32214;-86
2023/07/24 07:55:02;;;;;;;1.10;1.10;;;;;;;31.24;48.46;99437.47;4491578;31;33960;-85
2023/07/24 07:57:30;;;;;;;1.70;1.10;;;;;;;31.22;48.54;99432.22;4479451;31;32433;-86
2023/07/24 07:59:57;;;;;;;0.90;0.90;;;;;;;31.06;47.99;99444.41;4467540;31;33574;-86
2023/07/24 08:02:27;;;;;;;1.20;1.05;;;;;;;31.08;49.04;99441.44;4477198;31;33230;-86
2023/07/24 08:04:54;;;;;;;2.20;1.95;;;;;;;31.37;48.06;99438.34;4493890;31;34567;-86
2023/07/24 08:07:22;;;;;;;3.90;2.35;;;;;;;31.31;47.55;99439.19;4479638;31;34081;-86
2023/07/24 08:09:49;;;;;;;1.02;1.02;;;;;;;31.95;46.34;99440.38;4494381;31;33420;-86
2023/07/24 08:12:17;;;;;;;1.20;0.90;;;;;;;31.57;46.63;99432.88;4465730;31;34486;-86
2023/07/24 08:14:45;;;;;;;1.20;1.10;;;;;;;31.78;47.01;99429.06;4477292;31;32742;-86
2023/07/24 08:17:12;;;;;;;2.08;1.65;;;;;;;31.70;47.39;99431.16;4466625;31;32629;-87
2023/07/24 08:19:40;;;;;;;2.53;1.52;;;;;;;31.23;47.12;99436.63;4491088;31;33528;-86
2023/07/24 08:22:08;;;;;;;4.15;1.25;;;;;;;31.73;46.71;99431.59;4476783;31;34001;-86
2023/07/24 08:24:36;;;;;;;5.35;1.77;;;;;;;31.96;45.71;99424.84;4491783;31;34391;-87
2023/07/24 08:27:04;;;;;;;5.28;1.87;;;;;;;31.68;47.03;99425.94;4476456;31;33440;-87
2023/07/24 08:29:33;;;;;;;1.37;1.27;;;;;;;31.46;47.36;99440.84;4476240;31;34792;-87
2023/07/24 08:32:00;;;;;;;1.55;1.45;;;;;;;31.60;46.10;99439.78;4477536;31;34015;-86
2023/07/24 08:34:28;;;;;;;3.12;1.48;;;;;;;31.68;45.70;99438.75;4476834;31;34133;-86
2023/07/24 08:36:56;;;;;;;1.37;1.27;;;;;;;32.31;44.10;99430.81;4477533;31;32772;-86
2023/07/24 08:39:23;;;;;;;19.15;1.87;;;;;;;31.89;45.11;99424.03;4477405;31;33026;-87
2023/07/24 08:41:51;;;;;;;1.15;0.80;;;;;;;31.61;45.10;99423.19;4463558;31;34370;-86
2023/07/24 08:44:20;;;;;;;3.35;1.75;;;;;;;31.62;45.73;99424.91;4490746;31;34544;-86
2023/07/24 08:46:49;;;;;;;13.43;3.12;;;;;;;32.12;45.02;99419.75;4482076;31;32577;-87
2023/07/24 08:49:18;;;;;;;6.25;1.58;;;;;;;32.16;43.13;99420.16;4465586;31;33133;-87
2023/07/24 08:51:46;;;;;;;0.82;0.82;;;;;;;32.23;43.24;99415.47;4492704;31;34092;-86
2023/07/24 08:54:14;;;;;;;3.37;1.90;;;;;;;32.71;42.67;99400.53;4465897;31;32171;-87
2023/07/24 08:56:47;;;;;;;5.72;2.05;;;;;;;33.09;43.10;99397.75;4479198;31;32277;-87
2023/07/24 08:59:14;;;;;;;1.87;1.52;;;;;;;32.94;41.46;99406.31;4489665;31;31949;-87
2023/07/24 09:01:42;;;;;;;1.23;1.12;;;;;;;32.97;41.45;99405.03;4489003;31;34864;-86
2023/07/24 09:04:10;;;;;;;1.73;1.62;;;;;;;32.94;41.25;99405.47;4488597;31;33628;-87
2023/07/24 09:06:38;;;;;;;1.75;1.15;;;;;;;33.02;41.35;99388.78;4493786;31;32735;-87
2023/07/24 09:09:14;;;;;;;1.10;1.02;;;;;;;33.14;42.12;99392.50;4491499;31;33831;-86
2023/07/24 09:11:52;;;;;;;1.65;1.42;;;;;;;33.16;41.69;99384.88;4478925;31;34005;-87
2023/07/24 09:14:28;;;;;;;13.32;1.15;;;;;;;32.89;42.10;99392.44;4476345;31;33922;-85
2023/07/24 09:17:06;;;;;;;2.28;1.87;;;;;;;32.42;40.81;99385.59;4478409;31;33154;-87
2023/07/24 09:19:34;;;;;;;7.90;2.45;;;;;;;33.11;40.17;99373.78;4475090;31;33285;-87
2023/07/24 09:22:14;;;;;;;4.40;1.35;;;;;;;33.12;39.34;99375.44;4475967;31;33737;-87
2023/07/24 09:24:52;;;;;;;1.85;1.10;;;;;;;33.22;39.95;99381.25;4472912;31;34946;-88
2023/07/24 09:27:23;;;;;;;1.50;1.40;;;;;;;33.46;39.37;99376.00;4488165;31;33479;-87
2023/07/24 09:29:52;;;;;;;1.95;1.55;;;;;;;33.67;38.25;99367.38;4463858;31;34425;-86
2023/07/24 09:32:21;;;;;;;1.37;1.27;;;;;;;33.34;38.87;99374.00;4477893;31;34673;-85
2023/07/24 09:34:50;;;;;;;1.60;1.37;;;;;;;33.85;38.19;99369.25;4486772;31;35021;-85
2023/07/24 09:37:26;;;;;;;4.32;1.48;;;;;;;34.19;35.69;99365.09;4478070;31;33376;-86
2023/07/24 09:39:54;;;;;;;1.48;1.37;;;;;;;34.19;34.82;99369.72;4474940;31;33164;-85
2023/07/24 09:42:33;;;;;;;1.58;1.15;;;;;;;34.12;33.59;99358.84;4488488;31;33606;-86
2023/07/24 09:45:05;;;;;;;2.05;1.30;;;;;;;34.02;32.21;99348.44;4487576;31;33470;-85
2023/07/24 09:47:33;;;;;;;2.67;1.48;;;;;;;34.38;32.38;99336.56;4489552;31;33875;-86
2023/07/24 09:50:20;;;;;;;2.10;1.90;;;;;;;34.61;32.31;99340.44;4490633;31;34250;-86
2023/07/24 09:52:49;;;;;;;3.72;1.98;;;;;;;34.45;32.28;99336.44;4489333;31;33699;-86
2023/07/24 09:55:30;;;;;;;3.80;2.35;;;;;;;34.55;32.53;99344.13;4486356;31;33579;-86
2023/07/24 09:57:58;;;;;;;15.15;2.67;;;;;;;34.81;30.93;99343.75;4488140;31;31333;-86
2023/07/24 10:00:27;;;;;;;2.90;1.98;;;;;;;34.51;31.67;99330.06;4484935;31;35356;-86
2023/07/24 10:02:55;;;;;;;2.10;1.77;;;;;;;34.50;32.08;99327.56;4476686;31;32508;-86
2023/07/24 10:05:23;;;;;;;4.00;3.00;;;;;;;35.11;32.56;99318.16;4474406;31;33959;-86
2023/07/24 10:07:51;;;;;;;4.20;1.55;;;;;;;35.47;31.48;99316.25;4486933;31;34151;-86
2023/07/24 10:10:20;;;;;;;1.85;1.35;;;;;;;35.67;31.16;99307.63;4475081;31;32209;-85
2023/07/24 10:12:49;;;;;;;4.32;2.55;;;;;;;35.75;31.33;99308.06;4473656;31;32958;-86
2023/07/24 10:15:17;;;;;;;1.92;1.83;;;;;;;35.64;31.36;99311.66;4463180;31;33263;-87
2023/07/24 10:17:45;;;;;;;3.33;1.05;;;;;;;35.29;30.67;99309.78;4474109;31;32354;-86
2023/07/24 10:20:16;;;;;;;2.65;1.75;;;;;;;35.40;29.79;99300.69;4464552;31;33662;-88
2023/07/24 10:22:45;;;;;;;2.35;1.50;;;;;;;35.47;30.22;99299.78;4471637;31;33609;-87
2023/07/24 10:25:13;;;;;;;4.35;1.42;;;;;;;35.67;29.42;99291.97;4474662;31;33760;-87
2023/07/24 10:27:43;;;;;;;3.85;2.10;;;;;;;35.38;30.20;99286.38;4473282;31;33005;-87
2023/07/24 10:30:12;;;;;;;1.17;1.00;;;;;;;35.83;30.13;99282.94;4463609;31;34887;-87
2023/07/24 10:33:05;;;;;;;0.62;0.62;;;;;;;36.00;30.69;99287.72;4468939;31;34311;-87
2023/07/24 10:35:41;;;;;;;2.25;1.23;;;;;;;36.00;29.97;99269.31;4486177;31;34509;-86
2023/07/24 10:38:09;;;;;;;4.32;2.58;;;;;;;36.04;29.95;99277.91;4499383;31;33380;-87
2023/07/24 10:40:39;;;;;;;4.35;1.33;;;;;;;35.55;29.96;99270.00;4471895;31;32711;-86
2023/07/24 10:43:09;;;;;;;4.62;2.47;;;;;;;35.42;30.37;99275.78;4486496;31;33193;-87
2023/07/24 10:45:47;;;;;;;2.17;1.48;;;;;;;35.83;29.78;99271.97;4486465;31;33853;-87
2023/07/24 10:48:20;;;;;;;2.33;1.08;;;;;;;36.08;29.58;99265.31;4490940;31;33598;-87
2023/07/24 10:50:49;;;;;;;2.25;1.85;;;;;;;35.52;30.34;99267.78;4485134;31;33573;-86
2023/07/24 10:53:22;;;;;;;2.65;1.65;;;;;;;35.58;30.06;99263.22;4475365;31;32219;-86
2023/07/24 10:55:51;;;;;;;3.15;1.33;;;;;;;35.83;30.14;99255.47;4475421;31;32623;-87
2023/07/24 10:58:18;;;;;;;7.57;2.28;;;;;;;36.19;30.24;99256.19;4463702;31;33553;-87
2023/07/24 11:00:47;;;;;;;3.67;2.25;;;;;;;35.95;29.70;99246.41;4477752;31;34272;-88
2023/07/24 11:03:17;;;;;;;9.05;2.12;;;;;;;36.37;29.60;99242.22;4477959;31;33297;-89
2023/07/24 11:05:46;;;;;;;1.92;1.73;;;;;;;36.20;29.37;99237.78;4479240;31;33924;-89
2023/07/24 11:08:17;;;;;;;6.28;1.52;;;;;;;36.22;29.66;99238.37;4465056;31;32719;-88
2023/07/24 11:10:52;;;;;;;2.85;2.30;;;;;;;36.04;31.11;99233.94;4492336;31;31863;-88
2023/07/24 11:13:29;;;;;;;4.55;2.22;;;;;;;35.79;29.07;99231.50;4476794;31;32976;-88
2023/07/24 11:16:04;;;;;;;2.50;1.20;;;;;;;36.10;29.30;99220.03;4486640;31;33493;-89
2023/07/24 11:18:32;;;;;;;2.10;1.77;;;;;;;36.11;29.76;99231.84;4479992;31;32883;-86
2023/07/24 11:21:19;;;;;;;3.33;1.80;;;;;;;36.03;29.80;99232.25;4473083;31;32806;-86
2023/07/24 11:23:55;;;;;;;1.23;1.12;;;;;;;36.29;29.26;99223.37;4478605;31;32844;-85
2023/07/24 11:26:26;;;;;;;2.20;1.25;;;;;;;36.12;30.27;99219.78;4465005;31;33618;-85
2023/07/24 11:28:55;;;;;;;2.37;1.83;;;;;;;35.81;30.08;99212.88;4476939;31;34239;-87
2023/07/24 11:31:23;;;;;;;11.25;2.03;;;;;;;35.86;29.34;99193.75;4476326;31;33230;-88
2023/07/24 11:33:52;;;;;;;2.00;1.80;;;;;;;36.23;29.15;99185.09;4465792;31;33047;-87
2023/07/24 11:36:21;;;;;;;2.37;1.67;;;;;;;36.25;29.07;99170.00;4488378;31;33984;-87
2023/07/24 11:38:50;;;;;;;2.90;2.17;;;;;;;36.26;28.80;99179.06;4489099;31;33422;-88
2023/07/24 11:41:18;;;;;;;5.93;2.58;;;;;;;35.92;28.96;99173.50;4473517;31;33748;-86
2023/07/24 11:43:47;;;;;;;7.30;2.10;;;;;;;36.18;29.34;99158.34;4489903;31;34746;-87